sensor_id;sensor_type;location;lat;lon;timestamp;temperature;humidity
31661;DHT22;18267;52.234;7.444;2023-12-20T00:01:47;7.90;99.90
31661;DHT22;18267;52.234;7.444;2023-12-20T00:04:12;8.00;99.90
31661;DHT22;18267;52.234;7.444;2023-12-20T00:06:38;8.00;99.90
31661;DHT22;18267;52.234;7.444;2023-12-20T00:09:03;8.00;99.90
31661;DHT22;18267;52.234;7.444;2023-12-20T00:11:29;8.00;99.90
31661;DHT22;18267;52.234;7.444;2023-12-20T00:13:54;8.00;99.90
31661;DHT22;18267;52.234;7.444;2023-12-20T00:16:20;8.10;99.90
31661;DHT22;18267;52.234;7.444;2023-12-20T00:18:45;8.00;99.90
31661;DHT22;18267;52.234;7.444;2023-12-20T00:21:11;7.90;99.90
31661;DHT22;18267;52.234;7.444;2023-12-20T00:23:36;7.90;99.90
31661;DHT22;18267;52.234;7.444;2023-12-20T00:26:02;7.90;99.90
31661;DHT22;18267;52.234;7.444;2023-12-20T00:28:27;7.90;99.90
31661;DHT22;18267;52.234;7.444;2023-12-20T00:30:53;8.00;99.90
31661;DHT22;18267;52.234;7.444;2023-12-20T00:33:19;7.90;99.90
31661;DHT22;18267;52.234;7.444;2023-12-20T00:35:44;8.00;99.90
31661;DHT22;18267;52.234;7.444;2023-12-20T00:38:10;7.90;99.90
31661;DHT22;18267;52.234;7.444;2023-12-20T00:40:36;8.00;99.90
31661;DHT22;18267;52.234;7.444;2023-12-20T00:43:02;7.90;99.90
31661;DHT22;18267;52.234;7.444;2023-12-20T00:45:27;7.80;99.90
31661;DHT22;18267;52.234;7.444;2023-12-20T00:47:53;7.90;99.90
31661;DHT22;18267;52.234;7.444;2023-12-20T00:50:18;7.90;99.90
31661;DHT22;18267;52.234;7.444;2023-12-20T00:52:44;7.80;99.90
31661;DHT22;18267;52.234;7.444;2023-12-20T00:55:10;7.80;99.90
31661;DHT22;18267;52.234;7.444;2023-12-20T00:57:35;7.70;99.90
31661;DHT22;18267;52.234;7.444;2023-12-20T01:00:01;7.80;99.90
31661;DHT22;18267;52.234;7.444;2023-12-20T01:02:26;7.80;99.90
31661;DHT22;18267;52.234;7.444;2023-12-20T01:04:52;7.80;99.90
31661;DHT22;18267;52.234;7.444;2023-12-20T01:07:17;7.70;99.90
31661;DHT22;18267;52.234;7.444;2023-12-20T01:09:43;7.70;99.90
31661;DHT22;18267;52.234;7.444;2023-12-20T01:12:08;7.60;99.90
31661;DHT22;18267;52.234;7.444;2023-12-20T01:14:34;7.60;99.90
31661;DHT22;18267;52.234;7.444;2023-12-20T01:17:01;7.60;99.90
31661;DHT22;18267;52.234;7.444;2023-12-20T01:19:26;7.60;99.90
31661;DHT22;18267;52.234;7.444;2023-12-20T01:21:53;7.70;99.90
31661;DHT22;18267;52.234;7.444;2023-12-20T01:24:19;7.70;99.90
31661;DHT22;18267;52.234;7.444;2023-12-20T01:26:44;7.70;99.90
31661;DHT22;18267;52.234;7.444;2023-12-20T01:29:10;7.70;99.90
31661;DHT22;18267;52.234;7.444;2023-12-20T01:31:36;7.60;99.90
31661;DHT22;18267;52.234;7.444;2023-12-20T01:34:01;7.50;99.90
31661;DHT22;18267;52.234;7.444;2023-12-20T01:36:27;7.60;99.90
31661;DHT22;18267;52.234;7.444;2023-12-20T01:38:52;7.50;99.90
31661;DHT22;18267;52.234;7.444;2023-12-20T01:41:18;7.50;99.90
31661;DHT22;18267;52.234;7.444;2023-12-20T01:43:43;7.60;99.90
31661;DHT22;18267;52.234;7.444;2023-12-20T01:46:09;7.50;99.90
31661;DHT22;18267;52.234;7.444;2023-12-20T01:48:35;7.40;99.90
31661;DHT22;18267;52.234;7.444;2023-12-20T01:51:02;7.40;99.90
31661;DHT22;18267;52.234;7.444;2023-12-20T01:53:28;7.40;99.90
31661;DHT22;18267;52.234;7.444;2023-12-20T01:55:55;7.40;99.90
31661;DHT22;18267;52.234;7.444;2023-12-20T01:58:22;7.40;99.90
31661;DHT22;18267;52.234;7.444;2023-12-20T02:00:48;7.40;99.90
31661;DHT22;18267;52.234;7.444;2023-12-20T02:03:14;7.50;99.90
31661;DHT22;18267;52.234;7.444;2023-12-20T02:05:40;7.40;99.90
31661;DHT22;18267;52.234;7.444;2023-12-20T02:08:06;7.40;99.90
31661;DHT22;18267;52.234;7.444;2023-12-20T02:10:32;7.40;99.90
31661;DHT22;18267;52.234;7.444;2023-12-20T02:12:58;7.40;99.90
31661;DHT22;18267;52.234;7.444;2023-12-20T02:15:24;7.30;99.90
31661;DHT22;18267;52.234;7.444;2023-12-20T02:17:49;7.30;99.90
31661;DHT22;18267;52.234;7.444;2023-12-20T02:20:15;7.20;99.90
31661;DHT22;18267;52.234;7.444;2023-12-20T02:22:41;7.20;99.90
31661;DHT22;18267;52.234;7.444;2023-12-20T02:25:07;7.20;99.90
31661;DHT22;18267;52.234;7.444;2023-12-20T02:27:32;7.30;99.90
31661;DHT22;18267;52.234;7.444;2023-12-20T02:29:58;7.30;99.90
31661;DHT22;18267;52.234;7.444;2023-12-20T02:32:24;7.30;99.90
31661;DHT22;18267;52.234;7.444;2023-12-20T02:34:53;7.40;99.90
31661;DHT22;18267;52.234;7.444;2023-12-20T02:37:19;7.40;99.90
31661;DHT22;18267;52.234;7.444;2023-12-20T02:39:44;7.30;99.90
31661;DHT22;18267;52.234;7.444;2023-12-20T02:42:10;7.20;99.90
31661;DHT22;18267;52.234;7.444;2023-12-20T02:44:35;7.30;99.90
31661;DHT22;18267;52.234;7.444;2023-12-20T02:47:02;7.20;99.90
31661;DHT22;18267;52.234;7.444;2023-12-20T02:49:27;7.30;99.90
31661;DHT22;18267;52.234;7.444;2023-12-20T02:51:53;7.40;99.90
31661;DHT22;18267;52.234;7.444;2023-12-20T02:54:18;7.30;99.90
31661;DHT22;18267;52.234;7.444;2023-12-20T02:56:44;7.30;99.90
31661;DHT22;18267;52.234;7.444;2023-12-20T02:59:09;7.20;99.90
31661;DHT22;18267;52.234;7.444;2023-12-20T03:01:35;7.20;99.90
31661;DHT22;18267;52.234;7.444;2023-12-20T03:04:06;7.10;99.90
31661;DHT22;18267;52.234;7.444;2023-12-20T03:06:32;7.10;99.90
31661;DHT22;18267;52.234;7.444;2023-12-20T03:08:57;7.20;99.90
31661;DHT22;18267;52.234;7.444;2023-12-20T03:11:26;7.10;99.90
31661;DHT22;18267;52.234;7.444;2023-12-20T03:13:52;7.10;99.90
31661;DHT22;18267;52.234;7.444;2023-12-20T03:16:18;7.00;99.90
31661;DHT22;18267;52.234;7.444;2023-12-20T03:18:44;7.00;99.90
31661;DHT22;18267;52.234;7.444;2023-12-20T03:21:09;7.00;99.90
31661;DHT22;18267;52.234;7.444;2023-12-20T03:23:35;7.00;99.90
31661;DHT22;18267;52.234;7.444;2023-12-20T03:26:00;7.10;99.90
31661;DHT22;18267;52.234;7.444;2023-12-20T03:28:29;7.10;99.90
31661;DHT22;18267;52.234;7.444;2023-12-20T03:30:55;7.10;99.90
31661;DHT22;18267;52.234;7.444;2023-12-20T03:33:20;7.10;99.90
31661;DHT22;18267;52.234;7.444;2023-12-20T03:35:46;7.10;99.90
31661;DHT22;18267;52.234;7.444;2023-12-20T03:38:12;7.10;99.90
31661;DHT22;18267;52.234;7.444;2023-12-20T03:40:37;7.10;99.90
31661;DHT22;18267;52.234;7.444;2023-12-20T03:43:03;7.20;99.90
31661;DHT22;18267;52.234;7.444;2023-12-20T03:45:29;7.20;99.90
31661;DHT22;18267;52.234;7.444;2023-12-20T03:47:54;7.20;99.90
31661;DHT22;18267;52.234;7.444;2023-12-20T03:50:24;7.20;99.90
31661;DHT22;18267;52.234;7.444;2023-12-20T03:52:50;7.30;99.90
31661;DHT22;18267;52.234;7.444;2023-12-20T03:55:15;7.30;99.90
31661;DHT22;18267;52.234;7.444;2023-12-20T03:57:41;7.30;99.90
31661;DHT22;18267;52.234;7.444;2023-12-20T04:00:08;7.40;99.90
31661;DHT22;18267;52.234;7.444;2023-12-20T04:02:37;7.30;99.90
31661;DHT22;18267;52.234;7.444;2023-12-20T04:05:03;7.40;99.90
31661;DHT22;18267;52.234;7.444;2023-12-20T04:07:29;7.50;99.90
31661;DHT22;18267;52.234;7.444;2023-12-20T04:09:55;7.40;99.90
31661;DHT22;18267;52.234;7.444;2023-12-20T04:12:20;7.40;99.90
31661;DHT22;18267;52.234;7.444;2023-12-20T04:14:46;7.40;99.90
31661;DHT22;18267;52.234;7.444;2023-12-20T04:17:11;7.40;99.90
31661;DHT22;18267;52.234;7.444;2023-12-20T04:19:37;7.40;99.90
31661;DHT22;18267;52.234;7.444;2023-12-20T04:22:03;7.40;99.90
31661;DHT22;18267;52.234;7.444;2023-12-20T04:24:28;7.40;99.90
31661;DHT22;18267;52.234;7.444;2023-12-20T04:26:54;7.40;99.90
31661;DHT22;18267;52.234;7.444;2023-12-20T04:29:19;7.40;99.90
31661;DHT22;18267;52.234;7.444;2023-12-20T04:31:45;7.40;99.90
31661;DHT22;18267;52.234;7.444;2023-12-20T04:34:10;7.50;99.90
31661;DHT22;18267;52.234;7.444;2023-12-20T04:36:36;7.60;99.90
31661;DHT22;18267;52.234;7.444;2023-12-20T04:39:01;7.50;99.90
31661;DHT22;18267;52.234;7.444;2023-12-20T04:41:28;7.60;99.90
31661;DHT22;18267;52.234;7.444;2023-12-20T04:43:54;7.60;99.90
31661;DHT22;18267;52.234;7.444;2023-12-20T04:46:19;7.60;99.90
31661;DHT22;18267;52.234;7.444;2023-12-20T04:48:45;7.60;99.90
31661;DHT22;18267;52.234;7.444;2023-12-20T04:51:10;7.60;99.90
31661;DHT22;18267;52.234;7.444;2023-12-20T04:53:36;7.60;99.90
31661;DHT22;18267;52.234;7.444;2023-12-20T04:56:01;7.50;99.90
31661;DHT22;18267;52.234;7.444;2023-12-20T04:58:27;7.50;99.90
31661;DHT22;18267;52.234;7.444;2023-12-20T05:00:52;7.50;99.90
31661;DHT22;18267;52.234;7.444;2023-12-20T05:03:18;7.60;99.90
31661;DHT22;18267;52.234;7.444;2023-12-20T05:05:43;7.60;99.90
31661;DHT22;18267;52.234;7.444;2023-12-20T05:08:09;7.50;99.90
31661;DHT22;18267;52.234;7.444;2023-12-20T05:10:34;7.40;99.90
31661;DHT22;18267;52.234;7.444;2023-12-20T05:13:01;7.40;99.90
31661;DHT22;18267;52.234;7.444;2023-12-20T05:15:27;7.40;99.90
31661;DHT22;18267;52.234;7.444;2023-12-20T05:17:52;7.50;99.90
31661;DHT22;18267;52.234;7.444;2023-12-20T05:20:18;7.40;99.90
31661;DHT22;18267;52.234;7.444;2023-12-20T05:22:43;7.50;99.90
31661;DHT22;18267;52.234;7.444;2023-12-20T05:25:10;7.50;99.90
31661;DHT22;18267;52.234;7.444;2023-12-20T05:27:36;7.50;99.90
31661;DHT22;18267;52.234;7.444;2023-12-20T05:30:01;7.60;99.90
31661;DHT22;18267;52.234;7.444;2023-12-20T05:32:27;7.60;99.90
31661;DHT22;18267;52.234;7.444;2023-12-20T05:34:53;7.60;99.90
31661;DHT22;18267;52.234;7.444;2023-12-20T05:37:18;7.70;99.90
31661;DHT22;18267;52.234;7.444;2023-12-20T05:39:44;7.60;99.90
31661;DHT22;18267;52.234;7.444;2023-12-20T05:42:09;7.60;99.90
31661;DHT22;18267;52.234;7.444;2023-12-20T05:44:35;7.60;99.90
31661;DHT22;18267;52.234;7.444;2023-12-20T05:47:00;7.70;99.90
31661;DHT22;18267;52.234;7.444;2023-12-20T05:49:26;7.60;99.90
31661;DHT22;18267;52.234;7.444;2023-12-20T05:51:51;7.70;99.90
31661;DHT22;18267;52.234;7.444;2023-12-20T05:54:17;7.60;99.90
31661;DHT22;18267;52.234;7.444;2023-12-20T05:56:43;7.60;99.90
31661;DHT22;18267;52.234;7.444;2023-12-20T05:59:08;7.70;99.90
31661;DHT22;18267;52.234;7.444;2023-12-20T06:01:34;7.70;99.90
31661;DHT22;18267;52.234;7.444;2023-12-20T06:04:00;7.70;99.90
31661;DHT22;18267;52.234;7.444;2023-12-20T06:06:25;7.70;99.90
31661;DHT22;18267;52.234;7.444;2023-12-20T06:08:51;7.60;99.90
31661;DHT22;18267;52.234;7.444;2023-12-20T06:11:16;7.70;99.90
31661;DHT22;18267;52.234;7.444;2023-12-20T06:13:42;7.60;99.90
31661;DHT22;18267;52.234;7.444;2023-12-20T06:16:07;7.60;99.90
31661;DHT22;18267;52.234;7.444;2023-12-20T06:18:33;7.60;99.90
31661;DHT22;18267;52.234;7.444;2023-12-20T06:20:59;7.50;99.90
31661;DHT22;18267;52.234;7.444;2023-12-20T06:23:24;7.50;99.90
31661;DHT22;18267;52.234;7.444;2023-12-20T06:25:50;7.60;99.90
31661;DHT22;18267;52.234;7.444;2023-12-20T06:28:15;7.60;99.90
31661;DHT22;18267;52.234;7.444;2023-12-20T06:30:41;7.60;99.90
31661;DHT22;18267;52.234;7.444;2023-12-20T06:33:06;7.60;99.90
31661;DHT22;18267;52.234;7.444;2023-12-20T06:35:32;7.60;99.90
31661;DHT22;18267;52.234;7.444;2023-12-20T06:37:58;7.70;99.90
31661;DHT22;18267;52.234;7.444;2023-12-20T06:40:23;7.70;99.90
31661;DHT22;18267;52.234;7.444;2023-12-20T06:42:49;7.70;99.90
31661;DHT22;18267;52.234;7.444;2023-12-20T06:45:14;7.70;99.90
31661;DHT22;18267;52.234;7.444;2023-12-20T06:47:40;7.70;99.90
31661;DHT22;18267;52.234;7.444;2023-12-20T06:50:05;7.70;99.90
31661;DHT22;18267;52.234;7.444;2023-12-20T06:52:33;7.70;99.90
31661;DHT22;18267;52.234;7.444;2023-12-20T06:54:59;7.70;99.90
31661;DHT22;18267;52.234;7.444;2023-12-20T06:57:24;7.70;99.90
31661;DHT22;18267;52.234;7.444;2023-12-20T06:59:51;7.70;99.90
31661;DHT22;18267;52.234;7.444;2023-12-20T07:02:17;7.70;99.90
31661;DHT22;18267;52.234;7.444;2023-12-20T07:04:43;7.70;99.90
31661;DHT22;18267;52.234;7.444;2023-12-20T07:07:08;7.60;99.90
31661;DHT22;18267;52.234;7.444;2023-12-20T07:09:34;7.60;99.90
31661;DHT22;18267;52.234;7.444;2023-12-20T07:11:59;7.60;99.90
31661;DHT22;18267;52.234;7.444;2023-12-20T07:14:25;7.60;99.90
31661;DHT22;18267;52.234;7.444;2023-12-20T07:16:51;7.60;99.90
31661;DHT22;18267;52.234;7.444;2023-12-20T07:19:17;7.60;99.90
31661;DHT22;18267;52.234;7.444;2023-12-20T07:21:42;7.60;99.90
31661;DHT22;18267;52.234;7.444;2023-12-20T07:24:08;7.60;99.90
31661;DHT22;18267;52.234;7.444;2023-12-20T07:26:34;7.70;99.90
31661;DHT22;18267;52.234;7.444;2023-12-20T07:29:00;7.60;99.90
31661;DHT22;18267;52.234;7.444;2023-12-20T07:31:26;7.70;99.90
31661;DHT22;18267;52.234;7.444;2023-12-20T07:33:51;7.70;99.90
31661;DHT22;18267;52.234;7.444;2023-12-20T07:36:17;7.70;99.90
31661;DHT22;18267;52.234;7.444;2023-12-20T07:38:42;7.70;99.90
31661;DHT22;18267;52.234;7.444;2023-12-20T07:41:10;7.70;99.90
31661;DHT22;18267;52.234;7.444;2023-12-20T07:43:36;7.70;99.90
31661;DHT22;18267;52.234;7.444;2023-12-20T07:46:08;7.60;99.90
31661;DHT22;18267;52.234;7.444;2023-12-20T07:48:37;7.70;99.90
31661;DHT22;18267;52.234;7.444;2023-12-20T07:51:04;7.70;99.90
31661;DHT22;18267;52.234;7.444;2023-12-20T07:53:31;7.80;99.90
31661;DHT22;18267;52.234;7.444;2023-12-20T07:55:56;7.80;99.90
31661;DHT22;18267;52.234;7.444;2023-12-20T07:58:22;7.80;99.90
31661;DHT22;18267;52.234;7.444;2023-12-20T08:00:47;7.80;99.90
31661;DHT22;18267;52.234;7.444;2023-12-20T08:03:13;7.70;99.90
31661;DHT22;18267;52.234;7.444;2023-12-20T08:05:39;7.80;99.90
31661;DHT22;18267;52.234;7.444;2023-12-20T08:08:06;7.90;99.90
31661;DHT22;18267;52.234;7.444;2023-12-20T08:10:32;7.90;99.90
31661;DHT22;18267;52.234;7.444;2023-12-20T08:12:57;8.00;99.90
31661;DHT22;18267;52.234;7.444;2023-12-20T08:15:23;7.90;99.90
31661;DHT22;18267;52.234;7.444;2023-12-20T08:17:49;7.90;99.90
31661;DHT22;18267;52.234;7.444;2023-12-20T08:20:16;7.90;99.90
31661;DHT22;18267;52.234;7.444;2023-12-20T08:22:42;7.90;99.90
31661;DHT22;18267;52.234;7.444;2023-12-20T08:25:07;7.90;99.90
31661;DHT22;18267;52.234;7.444;2023-12-20T08:27:36;8.00;99.90
31661;DHT22;18267;52.234;7.444;2023-12-20T08:30:02;8.00;99.90
31661;DHT22;18267;52.234;7.444;2023-12-20T08:32:28;8.10;99.90
31661;DHT22;18267;52.234;7.444;2023-12-20T08:34:53;8.00;99.90
31661;DHT22;18267;52.234;7.444;2023-12-20T08:37:19;8.00;99.90
31661;DHT22;18267;52.234;7.444;2023-12-20T08:39:44;8.10;99.90
31661;DHT22;18267;52.234;7.444;2023-12-20T08:42:10;8.10;99.90
31661;DHT22;18267;52.234;7.444;2023-12-20T08:44:35;8.10;99.90
31661;DHT22;18267;52.234;7.444;2023-12-20T08:47:01;8.00;99.90
31661;DHT22;18267;52.234;7.444;2023-12-20T08:49:27;8.00;99.90
31661;DHT22;18267;52.234;7.444;2023-12-20T08:51:53;7.90;99.90
31661;DHT22;18267;52.234;7.444;2023-12-20T08:54:19;8.00;99.90
31661;DHT22;18267;52.234;7.444;2023-12-20T08:56:45;8.00;99.90
31661;DHT22;18267;52.234;7.444;2023-12-20T08:59:11;8.00;99.90
31661;DHT22;18267;52.234;7.444;2023-12-20T09:01:37;8.10;99.90
31661;DHT22;18267;52.234;7.444;2023-12-20T09:04:03;8.00;99.90
31661;DHT22;18267;52.234;7.444;2023-12-20T09:06:28;8.00;99.90
31661;DHT22;18267;52.234;7.444;2023-12-20T09:08:54;8.00;99.90
31661;DHT22;18267;52.234;7.444;2023-12-20T09:11:19;8.00;99.90
31661;DHT22;18267;52.234;7.444;2023-12-20T09:13:45;8.00;99.90
31661;DHT22;18267;52.234;7.444;2023-12-20T09:16:10;8.10;99.90
31661;DHT22;18267;52.234;7.444;2023-12-20T09:18:36;8.20;99.90
31661;DHT22;18267;52.234;7.444;2023-12-20T09:21:01;8.20;99.90
31661;DHT22;18267;52.234;7.444;2023-12-20T09:23:27;8.20;99.90
31661;DHT22;18267;52.234;7.444;2023-12-20T09:25:53;8.30;99.90
31661;DHT22;18267;52.234;7.444;2023-12-20T09:28:19;8.20;99.90
31661;DHT22;18267;52.234;7.444;2023-12-20T09:30:44;8.30;99.90
31661;DHT22;18267;52.234;7.444;2023-12-20T09:33:11;8.30;99.90
31661;DHT22;18267;52.234;7.444;2023-12-20T09:35:37;8.20;99.90
31661;DHT22;18267;52.234;7.444;2023-12-20T09:38:02;8.30;99.90
31661;DHT22;18267;52.234;7.444;2023-12-20T09:40:29;8.30;99.90
31661;DHT22;18267;52.234;7.444;2023-12-20T09:42:58;8.20;99.90
31661;DHT22;18267;52.234;7.444;2023-12-20T09:45:26;8.20;99.90
31661;DHT22;18267;52.234;7.444;2023-12-20T09:47:53;8.30;99.90
31661;DHT22;18267;52.234;7.444;2023-12-20T09:50:20;8.20;99.90
31661;DHT22;18267;52.234;7.444;2023-12-20T09:52:52;8.30;99.90
31661;DHT22;18267;52.234;7.444;2023-12-20T09:55:18;8.30;99.90
31661;DHT22;18267;52.234;7.444;2023-12-20T09:57:48;8.30;99.90
31661;DHT22;18267;52.234;7.444;2023-12-20T10:00:15;8.20;99.90
31661;DHT22;18267;52.234;7.444;2023-12-20T10:03:01;8.20;99.90
31661;DHT22;18267;52.234;7.444;2023-12-20T10:05:27;8.00;99.90
31661;DHT22;18267;52.234;7.444;2023-12-20T10:07:53;8.10;99.90
31661;DHT22;18267;52.234;7.444;2023-12-20T10:10:19;8.10;99.90
31661;DHT22;18267;52.234;7.444;2023-12-20T10:13:04;8.20;99.90
31661;DHT22;18267;52.234;7.444;2023-12-20T10:15:31;8.10;99.90
31661;DHT22;18267;52.234;7.444;2023-12-20T10:17:57;8.20;99.90
31661;DHT22;18267;52.234;7.444;2023-12-20T10:20:23;8.20;99.90
31661;DHT22;18267;52.234;7.444;2023-12-20T10:22:49;8.30;99.90
31661;DHT22;18267;52.234;7.444;2023-12-20T10:25:15;8.50;99.90
31661;DHT22;18267;52.234;7.444;2023-12-20T10:27:40;8.50;99.90
31661;DHT22;18267;52.234;7.444;2023-12-20T10:30:06;8.40;99.90
31661;DHT22;18267;52.234;7.444;2023-12-20T10:32:32;8.30;99.90
31661;DHT22;18267;52.234;7.444;2023-12-20T10:34:58;8.20;99.90
31661;DHT22;18267;52.234;7.444;2023-12-20T10:37:24;8.10;99.90
31661;DHT22;18267;52.234;7.444;2023-12-20T10:39:52;8.20;99.90
31661;DHT22;18267;52.234;7.444;2023-12-20T10:42:21;8.20;99.90
31661;DHT22;18267;52.234;7.444;2023-12-20T10:44:49;8.30;99.90
31661;DHT22;18267;52.234;7.444;2023-12-20T10:47:15;8.30;99.90
31661;DHT22;18267;52.234;7.444;2023-12-20T10:49:42;8.30;99.90
31661;DHT22;18267;52.234;7.444;2023-12-20T10:52:08;8.40;99.90
31661;DHT22;18267;52.234;7.444;2023-12-20T10:54:34;8.50;99.90
31661;DHT22;18267;52.234;7.444;2023-12-20T10:57:00;8.60;99.90
31661;DHT22;18267;52.234;7.444;2023-12-20T10:59:27;8.70;99.90
31661;DHT22;18267;52.234;7.444;2023-12-20T11:01:55;8.90;99.90
31661;DHT22;18267;52.234;7.444;2023-12-20T11:04:28;9.00;99.90
31661;DHT22;18267;52.234;7.444;2023-12-20T11:09:41;8.80;99.90
31661;DHT22;18267;52.234;7.444;2023-12-20T11:12:35;8.90;99.90
31661;DHT22;18267;52.234;7.444;2023-12-20T11:15:03;9.00;99.90
31661;DHT22;18267;52.234;7.444;2023-12-20T11:17:31;9.00;99.90
31661;DHT22;18267;52.234;7.444;2023-12-20T11:22:26;9.20;99.90
31661;DHT22;18267;52.234;7.444;2023-12-20T11:24:54;9.20;99.90
31661;DHT22;18267;52.234;7.444;2023-12-20T11:27:21;9.10;99.90
31661;DHT22;18267;52.234;7.444;2023-12-20T11:29:54;9.00;99.90
31661;DHT22;18267;52.234;7.444;2023-12-20T11:34:58;9.10;99.90
31661;DHT22;18267;52.234;7.444;2023-12-20T11:37:31;9.10;99.90
31661;DHT22;18267;52.234;7.444;2023-12-20T11:40:07;9.10;99.90
31661;DHT22;18267;52.234;7.444;2023-12-20T11:42:42;9.00;99.90
31661;DHT22;18267;52.234;7.444;2023-12-20T11:45:18;9.00;99.90
31661;DHT22;18267;52.234;7.444;2023-12-20T11:47:48;8.90;99.90
31661;DHT22;18267;52.234;7.444;2023-12-20T11:50:20;8.90;99.90
31661;DHT22;18267;52.234;7.444;2023-12-20T11:52:47;8.90;99.90
31661;DHT22;18267;52.234;7.444;2023-12-20T11:55:13;8.80;99.90
31661;DHT22;18267;52.234;7.444;2023-12-20T11:57:39;8.70;99.90
31661;DHT22;18267;52.234;7.444;2023-12-20T12:00:06;8.60;99.90
31661;DHT22;18267;52.234;7.444;2023-12-20T12:02:32;8.40;99.90
31661;DHT22;18267;52.234;7.444;2023-12-20T12:04:59;8.30;99.90
31661;DHT22;18267;52.234;7.444;2023-12-20T12:07:25;8.10;99.90
31661;DHT22;18267;52.234;7.444;2023-12-20T12:09:50;8.00;99.90
31661;DHT22;18267;52.234;7.444;2023-12-20T12:12:17;8.10;99.90
31661;DHT22;18267;52.234;7.444;2023-12-20T12:14:44;8.00;99.90
31661;DHT22;18267;52.234;7.444;2023-12-20T12:17:13;7.80;99.90
31661;DHT22;18267;52.234;7.444;2023-12-20T12:19:40;7.80;99.90
31661;DHT22;18267;52.234;7.444;2023-12-20T12:22:10;7.70;99.90
31661;DHT22;18267;52.234;7.444;2023-12-20T12:24:39;7.70;99.90
31661;DHT22;18267;52.234;7.444;2023-12-20T12:27:08;7.70;99.90
31661;DHT22;18267;52.234;7.444;2023-12-20T12:29:37;7.70;99.90
31661;DHT22;18267;52.234;7.444;2023-12-20T12:32:09;7.70;99.90
31661;DHT22;18267;52.234;7.444;2023-12-20T12:34:35;7.70;99.90
31661;DHT22;18267;52.234;7.444;2023-12-20T12:37:03;7.60;99.90
31661;DHT22;18267;52.234;7.444;2023-12-20T12:39:29;7.70;99.90
31661;DHT22;18267;52.234;7.444;2023-12-20T12:41:55;7.60;99.90
31661;DHT22;18267;52.234;7.444;2023-12-20T12:44:22;7.80;99.90
31661;DHT22;18267;52.234;7.444;2023-12-20T12:46:50;7.90;99.90
31661;DHT22;18267;52.234;7.444;2023-12-20T12:49:16;7.80;99.90
31661;DHT22;18267;52.234;7.444;2023-12-20T12:51:43;7.90;99.90
31661;DHT22;18267;52.234;7.444;2023-12-20T12:54:09;8.00;99.90
31661;DHT22;18267;52.234;7.444;2023-12-20T12:56:35;8.00;99.90
31661;DHT22;18267;52.234;7.444;2023-12-20T12:59:01;8.00;99.90
31661;DHT22;18267;52.234;7.444;2023-12-20T13:01:27;7.90;99.90
31661;DHT22;18267;52.234;7.444;2023-12-20T13:03:53;8.00;99.90
31661;DHT22;18267;52.234;7.444;2023-12-20T13:06:19;8.10;99.90
31661;DHT22;18267;52.234;7.444;2023-12-20T13:08:45;8.20;99.90
31661;DHT22;18267;52.234;7.444;2023-12-20T13:11:10;8.20;99.90
31661;DHT22;18267;52.234;7.444;2023-12-20T13:13:36;8.20;99.90
31661;DHT22;18267;52.234;7.444;2023-12-20T13:16:02;8.30;99.90
31661;DHT22;18267;52.234;7.444;2023-12-20T13:18:27;8.30;99.90
31661;DHT22;18267;52.234;7.444;2023-12-20T13:20:55;8.30;99.90
31661;DHT22;18267;52.234;7.444;2023-12-20T13:23:21;8.40;99.90
31661;DHT22;18267;52.234;7.444;2023-12-20T13:25:46;8.30;99.90
31661;DHT22;18267;52.234;7.444;2023-12-20T13:28:12;8.30;99.90
31661;DHT22;18267;52.234;7.444;2023-12-20T13:30:38;8.30;99.90
31661;DHT22;18267;52.234;7.444;2023-12-20T13:33:06;8.20;99.90
31661;DHT22;18267;52.234;7.444;2023-12-20T13:35:32;8.30;99.90
31661;DHT22;18267;52.234;7.444;2023-12-20T13:37:59;8.20;99.90
31661;DHT22;18267;52.234;7.444;2023-12-20T13:40:24;8.20;99.90
31661;DHT22;18267;52.234;7.444;2023-12-20T13:42:50;8.30;99.90
31661;DHT22;18267;52.234;7.444;2023-12-20T13:45:16;8.30;99.90
31661;DHT22;18267;52.234;7.444;2023-12-20T13:47:41;8.30;99.90
31661;DHT22;18267;52.234;7.444;2023-12-20T13:50:07;8.30;99.90
31661;DHT22;18267;52.234;7.444;2023-12-20T13:52:33;8.30;99.90
31661;DHT22;18267;52.234;7.444;2023-12-20T13:54:58;8.30;99.90
31661;DHT22;18267;52.234;7.444;2023-12-20T13:57:24;8.20;99.90
31661;DHT22;18267;52.234;7.444;2023-12-20T13:59:49;8.30;99.90
31661;DHT22;18267;52.234;7.444;2023-12-20T14:02:15;8.30;99.90
31661;DHT22;18267;52.234;7.444;2023-12-20T14:04:42;8.30;99.90
31661;DHT22;18267;52.234;7.444;2023-12-20T14:07:08;8.30;99.90
31661;DHT22;18267;52.234;7.444;2023-12-20T14:09:35;8.30;99.90
31661;DHT22;18267;52.234;7.444;2023-12-20T14:12:00;8.20;99.90
31661;DHT22;18267;52.234;7.444;2023-12-20T14:14:26;8.20;99.90
31661;DHT22;18267;52.234;7.444;2023-12-20T14:16:51;8.10;99.90
31661;DHT22;18267;52.234;7.444;2023-12-20T14:19:17;8.20;99.90
31661;DHT22;18267;52.234;7.444;2023-12-20T14:21:43;8.10;99.90
31661;DHT22;18267;52.234;7.444;2023-12-20T14:24:12;8.10;99.90
31661;DHT22;18267;52.234;7.444;2023-12-20T14:26:40;8.10;99.90
31661;DHT22;18267;52.234;7.444;2023-12-20T14:29:06;8.10;99.90
31661;DHT22;18267;52.234;7.444;2023-12-20T14:31:33;8.10;99.90
31661;DHT22;18267;52.234;7.444;2023-12-20T14:33:58;8.10;99.90
31661;DHT22;18267;52.234;7.444;2023-12-20T14:36:24;8.20;99.90
31661;DHT22;18267;52.234;7.444;2023-12-20T14:38:50;8.10;99.90
31661;DHT22;18267;52.234;7.444;2023-12-20T14:41:16;8.20;99.90
31661;DHT22;18267;52.234;7.444;2023-12-20T14:43:43;8.20;99.90
31661;DHT22;18267;52.234;7.444;2023-12-20T14:46:08;8.20;99.90
31661;DHT22;18267;52.234;7.444;2023-12-20T14:48:34;8.10;99.90
31661;DHT22;18267;52.234;7.444;2023-12-20T14:50:59;7.90;99.90
31661;DHT22;18267;52.234;7.444;2023-12-20T14:53:26;7.90;99.90
31661;DHT22;18267;52.234;7.444;2023-12-20T14:55:52;8.00;99.90
31661;DHT22;18267;52.234;7.444;2023-12-20T14:58:17;8.10;99.90
31661;DHT22;18267;52.234;7.444;2023-12-20T15:00:43;8.20;99.90
31661;DHT22;18267;52.234;7.444;2023-12-20T15:03:10;8.20;99.90
31661;DHT22;18267;52.234;7.444;2023-12-20T15:05:36;8.00;99.90
31661;DHT22;18267;52.234;7.444;2023-12-20T15:08:02;8.10;99.90
31661;DHT22;18267;52.234;7.444;2023-12-20T15:10:27;8.00;99.90
31661;DHT22;18267;52.234;7.444;2023-12-20T15:12:53;8.10;99.90
31661;DHT22;18267;52.234;7.444;2023-12-20T15:15:20;8.00;99.90
31661;DHT22;18267;52.234;7.444;2023-12-20T15:17:45;8.10;99.90
31661;DHT22;18267;52.234;7.444;2023-12-20T15:20:11;8.20;99.90
31661;DHT22;18267;52.234;7.444;2023-12-20T15:22:37;8.10;99.90
31661;DHT22;18267;52.234;7.444;2023-12-20T15:25:03;8.10;99.90
31661;DHT22;18267;52.234;7.444;2023-12-20T15:27:31;8.30;99.90
31661;DHT22;18267;52.234;7.444;2023-12-20T15:29:58;8.40;99.90
31661;DHT22;18267;52.234;7.444;2023-12-20T15:32:24;8.40;99.90
31661;DHT22;18267;52.234;7.444;2023-12-20T15:34:49;8.40;99.90
31661;DHT22;18267;52.234;7.444;2023-12-20T15:37:16;8.40;99.90
31661;DHT22;18267;52.234;7.444;2023-12-20T15:39:42;8.40;99.90
31661;DHT22;18267;52.234;7.444;2023-12-20T15:42:08;8.50;99.90
31661;DHT22;18267;52.234;7.444;2023-12-20T15:44:34;8.50;99.90
31661;DHT22;18267;52.234;7.444;2023-12-20T15:46:59;8.40;99.90